createdAt,value
2022-10-23T00:01:28.156Z,19.90
2022-10-23T00:04:03.098Z,19.02
2022-10-23T00:06:35.672Z,20.43
2022-10-23T00:09:05.039Z,19.67
2022-10-23T00:11:32.593Z,18.88
2022-10-23T00:14:02.279Z,19.92
2022-10-23T00:16:29.978Z,20.63
2022-10-23T00:18:57.375Z,18.23
2022-10-23T00:21:25.319Z,18.55
2022-10-23T00:23:52.927Z,19.33
2022-10-23T00:26:20.394Z,25.17
2022-10-23T00:28:50.342Z,22.42
2022-10-23T00:31:18.959Z,19.67
2022-10-23T00:33:46.407Z,18.35
2022-10-23T00:36:15.682Z,22.55
2022-10-23T00:38:45.282Z,22.52
2022-10-23T00:41:22.212Z,21.30
2022-10-23T00:44:18.201Z,18.45
2022-10-23T00:46:46.184Z,22.30
2022-10-23T00:49:14.393Z,21.48
2022-10-23T00:51:48.639Z,19.83
2022-10-23T00:54:23.946Z,23.10
2022-10-23T00:56:56.043Z,18.10
2022-10-23T00:59:24.076Z,26.73
2022-10-23T01:01:51.871Z,21.25
2022-10-23T01:04:19.852Z,21.98
2022-10-23T01:06:47.019Z,17.73
2022-10-23T01:09:55.725Z,20.15
2022-10-23T01:12:34.603Z,18.05
2022-10-23T01:15:08.065Z,17.43
2022-10-23T01:17:51.471Z,18.77
2022-10-23T01:20:27.741Z,23.38
2022-10-23T01:23:17.274Z,17.17
2022-10-23T01:25:54.163Z,17.23
2022-10-23T01:28:28.347Z,16.90
2022-10-23T01:30:59.539Z,17.02
2022-10-23T01:33:47.290Z,21.10
2022-10-23T01:36:23.751Z,20.20
2022-10-23T01:39:14.937Z,16.95
2022-10-23T01:41:57.698Z,18.17
2022-10-23T01:44:50.642Z,18.80
2022-10-23T01:47:25.779Z,16.08
2022-10-23T01:50:00.956Z,19.33
2022-10-23T01:52:28.351Z,16.13
2022-10-23T01:55:00.150Z,16.90
2022-10-23T01:57:31.141Z,17.83
2022-10-23T02:00:03.808Z,16.98
2022-10-23T02:02:33.873Z,17.23
2022-10-23T02:05:11.219Z,15.98
2022-10-23T02:07:38.544Z,18.63
2022-10-23T02:10:08.043Z,17.52
2022-10-23T02:12:56.106Z,18.27
2022-10-23T02:15:28.672Z,16.55
2022-10-23T02:18:37.154Z,17.30
2022-10-23T02:21:14.115Z,18.15
2022-10-23T02:23:52.536Z,17.92
2022-10-23T02:26:28.790Z,15.32
2022-10-23T02:31:37.189Z,18.67
2022-10-23T02:34:04.627Z,17.58
2022-10-23T02:36:31.994Z,20.50
2022-10-23T02:38:59.941Z,19.42
2022-10-23T02:41:37.239Z,16.75
2022-10-23T02:44:34.917Z,15.57
2022-10-23T02:47:26.439Z,15.80
2022-10-23T02:50:00.132Z,19.33
2022-10-23T02:52:52.995Z,17.40
2022-10-23T02:55:39.874Z,21.15
2022-10-23T02:58:24.219Z,17.88
2022-10-23T03:00:59.802Z,17.90
2022-10-23T03:03:32.326Z,17.25
2022-10-23T03:05:59.716Z,18.48
2022-10-23T03:08:26.906Z,18.23
2022-10-23T03:10:54.108Z,17.52
2022-10-23T03:13:23.505Z,19.23
2022-10-23T03:15:50.740Z,17.25
2022-10-23T03:18:17.859Z,18.98
2022-10-23T03:20:48.267Z,19.90
2022-10-23T03:23:15.384Z,17.73
2022-10-23T03:25:43.169Z,17.90
2022-10-23T03:28:11.324Z,16.15
2022-10-23T03:30:38.706Z,15.73
2022-10-23T03:33:05.899Z,18.52
2022-10-23T03:35:35.687Z,18.70
2022-10-23T03:38:03.281Z,19.20
2022-10-23T03:40:30.497Z,20.65
2022-10-23T03:42:57.864Z,19.80
2022-10-23T03:45:25.076Z,21.83
2022-10-23T03:47:52.342Z,18.92
2022-10-23T03:50:20.716Z,20.50
2022-10-23T03:52:48.271Z,18.23
2022-10-23T03:55:15.684Z,16.73
2022-10-23T03:57:42.941Z,19.75
2022-10-23T04:00:10.915Z,19.25
2022-10-23T04:02:44.575Z,19.45
2022-10-23T04:05:12.363Z,19.33
2022-10-23T04:07:41.491Z,20.10
2022-10-23T04:10:09.117Z,21.60
2022-10-23T04:12:36.494Z,16.10
2022-10-23T04:15:04.288Z,17.73
2022-10-23T04:17:31.420Z,18.00
2022-10-23T04:19:59.126Z,18.20
2022-10-23T04:22:28.427Z,21.45
2022-10-23T04:24:56.298Z,19.08
2022-10-23T04:27:23.501Z,17.55
2022-10-23T04:29:53.250Z,17.90
2022-10-23T04:32:22.806Z,17.73
2022-10-23T04:34:49.940Z,18.73
2022-10-23T04:37:17.153Z,16.20
2022-10-23T04:39:44.970Z,19.17
2022-10-23T04:42:14.295Z,16.17
2022-10-23T04:44:41.562Z,15.73
2022-10-23T04:47:08.702Z,19.80
2022-10-23T04:49:44.206Z,15.32
2022-10-23T04:52:19.939Z,14.50
2022-10-23T04:55:13.469Z,16.15
2022-10-23T04:57:52.567Z,13.88
2022-10-23T05:00:23.943Z,16.88
2022-10-23T05:02:54.058Z,17.65
2022-10-23T05:05:22.167Z,16.87
2022-10-23T05:08:24.087Z,16.50
2022-10-23T05:11:09.607Z,14.00
2022-10-23T05:13:42.561Z,15.50
2022-10-23T05:16:09.929Z,15.48
2022-10-23T05:18:45.357Z,13.25
2022-10-23T05:21:21.928Z,14.48
2022-10-23T05:23:50.891Z,19.55
2022-10-23T05:26:18.430Z,16.03
2022-10-23T05:28:48.159Z,16.40
2022-10-23T05:31:19.603Z,13.77
2022-10-23T05:33:50.957Z,22.03
2022-10-23T05:36:21.217Z,15.73
2022-10-23T05:38:52.200Z,15.57
2022-10-23T05:41:21.192Z,15.60
2022-10-23T05:43:48.578Z,16.43
2022-10-23T05:46:34.489Z,18.52
2022-10-23T05:49:13.179Z,15.23
2022-10-23T05:51:55.577Z,14.32
2022-10-23T05:54:45.057Z,13.27
2022-10-23T05:57:42.970Z,16.25
2022-10-23T06:00:13.003Z,14.38
2022-10-23T06:02:43.243Z,15.10
2022-10-23T06:05:36.851Z,18.05
2022-10-23T06:08:24.346Z,15.07
2022-10-23T06:10:51.818Z,14.18
2022-10-23T06:13:19.307Z,13.30
2022-10-23T06:15:46.947Z,14.40
2022-10-23T06:18:19.098Z,15.73
2022-10-23T06:20:55.470Z,14.20
2022-10-23T06:23:25.798Z,12.38
2022-10-23T06:26:16.553Z,16.40
2022-10-23T06:28:56.162Z,16.63
2022-10-23T06:31:27.829Z,13.20
2022-10-23T06:33:58.354Z,14.27
2022-10-23T06:36:26.417Z,13.77
2022-10-23T06:41:53.589Z,13.10
2022-10-23T06:44:50.262Z,13.50
2022-10-23T06:47:28.247Z,16.40
2022-10-23T06:50:33.646Z,12.73
2022-10-23T06:53:06.266Z,12.20
2022-10-23T06:55:35.510Z,11.80
2022-10-23T06:58:04.518Z,8.55
2022-10-23T07:00:31.792Z,11.82
2022-10-23T07:02:58.946Z,12.60
2022-10-23T07:05:26.124Z,12.52
2022-10-23T07:07:53.350Z,11.55
2022-10-23T07:10:25.630Z,12.27
2022-10-23T07:13:00.735Z,11.73
2022-10-23T07:15:40.457Z,12.25
2022-10-23T07:18:14.476Z,9.83
2022-10-23T07:21:00.327Z,12.38
2022-10-23T07:23:29.128Z,12.68
2022-10-23T07:25:56.297Z,10.40
2022-10-23T07:28:23.887Z,10.15
2022-10-23T07:30:58.709Z,10.02
2022-10-23T07:33:30.658Z,10.77
2022-10-23T07:36:07.934Z,10.82
2022-10-23T07:38:35.647Z,9.50
2022-10-23T07:41:03.100Z,10.05
2022-10-23T07:45:59.851Z,10.98
2022-10-23T07:48:33.524Z,12.48
2022-10-23T07:51:08.074Z,7.53
2022-10-23T07:53:38.674Z,10.07
2022-10-23T07:56:15.896Z,10.10
2022-10-23T07:59:05.921Z,11.65
2022-10-23T08:01:36.850Z,12.00
2022-10-23T08:04:05.139Z,13.40
2022-10-23T08:06:33.248Z,10.00
2022-10-23T08:09:03.729Z,9.50
2022-10-23T08:11:35.544Z,10.10
2022-10-23T08:14:08.247Z,10.63
2022-10-23T08:16:37.867Z,9.07
2022-10-23T08:19:16.812Z,11.02
2022-10-23T08:21:45.710Z,10.90
2022-10-23T08:24:14.217Z,11.30
2022-10-23T08:26:43.920Z,13.23
2022-10-23T08:29:12.573Z,9.05
2022-10-23T08:31:40.455Z,11.45
2022-10-23T08:34:31.215Z,9.15
2022-10-23T08:36:59.534Z,9.73
2022-10-23T08:39:26.769Z,10.80
2022-10-23T08:42:24.911Z,12.18
2022-10-23T08:45:11.894Z,10.65
2022-10-23T08:47:48.879Z,13.18
2022-10-23T08:50:49.298Z,10.60
2022-10-23T08:53:27.259Z,11.77
2022-10-23T08:56:03.397Z,12.55
2022-10-23T08:58:53.683Z,8.60
2022-10-23T09:01:45.596Z,11.10
2022-10-23T09:04:14.322Z,9.65
2022-10-23T09:06:54.454Z,13.50
2022-10-23T09:09:36.694Z,9.77
2022-10-23T09:12:17.483Z,8.85
2022-10-23T09:15:02.969Z,10.13
2022-10-23T09:17:36.007Z,9.43
2022-10-23T09:20:24.268Z,12.65
2022-10-23T09:23:07.631Z,10.55
2022-10-23T09:25:39.203Z,8.95
2022-10-23T09:28:06.432Z,9.13
2022-10-23T09:30:38.493Z,11.13
2022-10-23T09:33:18.884Z,9.50
2022-10-23T09:36:07.297Z,11.90
2022-10-23T09:38:36.812Z,11.85
2022-10-23T09:41:11.227Z,10.15
2022-10-23T09:43:38.362Z,9.43
2022-10-23T09:46:07.930Z,8.30
2022-10-23T09:48:37.453Z,8.87
2022-10-23T09:51:17.376Z,9.98
2022-10-23T09:53:52.654Z,8.93
2022-10-23T09:56:31.349Z,9.98
2022-10-23T09:59:05.877Z,8.60
2022-10-23T10:01:38.422Z,7.72
2022-10-23T10:04:38.020Z,8.80
2022-10-23T10:07:17.494Z,10.43
2022-10-23T10:09:44.713Z,8.45
2022-10-23T10:12:19.746Z,9.47
2022-10-23T10:15:03.556Z,8.30
2022-10-23T10:17:47.901Z,11.85
2022-10-23T10:20:24.299Z,9.60
2022-10-23T10:23:12.757Z,8.80
2022-10-23T10:26:04.893Z,7.87
2022-10-23T10:29:08.459Z,10.48
2022-10-23T10:32:13.131Z,10.05
2022-10-23T10:35:04.384Z,8.38
2022-10-23T10:38:15.926Z,8.38
2022-10-23T10:40:59.114Z,6.43
2022-10-23T10:43:54.943Z,11.30
2022-10-23T10:46:38.256Z,10.35
2022-10-23T10:49:19.793Z,6.50
2022-10-23T10:52:16.506Z,7.60
2022-10-23T10:54:58.793Z,7.63
2022-10-23T10:58:01.129Z,7.13
2022-10-23T11:00:31.377Z,8.25
2022-10-23T11:03:04.463Z,7.55
2022-10-23T11:05:33.162Z,7.97
2022-10-23T11:08:29.152Z,10.57
2022-10-23T11:11:03.703Z,8.57
2022-10-23T11:13:35.557Z,8.18
2022-10-23T11:16:27.380Z,8.45
2022-10-23T11:19:09.933Z,9.27
2022-10-23T11:21:50.389Z,8.07
2022-10-23T11:24:52.375Z,7.25
2022-10-23T11:27:45.753Z,8.10
2022-10-23T11:30:29.453Z,8.60
2022-10-23T11:33:30.952Z,9.20
2022-10-23T11:36:07.272Z,8.77
2022-10-23T11:38:38.873Z,8.82
2022-10-23T11:41:19.962Z,7.87
2022-10-23T11:43:55.329Z,8.98
2022-10-23T11:46:25.484Z,10.55
2022-10-23T11:48:54.471Z,7.38
2022-10-23T11:51:32.247Z,8.73
2022-10-23T11:54:08.138Z,7.55
2022-10-23T11:56:36.220Z,5.55
2022-10-23T11:59:29.514Z,6.32
2022-10-23T12:02:00.638Z,6.30
2022-10-23T12:04:49.151Z,7.03
2022-10-23T12:07:38.325Z,6.88
2022-10-23T12:10:23.687Z,6.90
2022-10-23T12:13:00.594Z,10.25
2022-10-23T12:15:28.621Z,5.83
2022-10-23T12:18:10.409Z,7.22
2022-10-23T12:21:01.103Z,5.70
2022-10-23T12:23:40.445Z,4.80
2022-10-23T12:26:26.702Z,7.88
2022-10-23T12:29:02.366Z,8.18
2022-10-23T12:31:55.097Z,7.05
2022-10-23T12:34:25.245Z,8.87
2022-10-23T12:37:10.901Z,5.43
2022-10-23T12:39:39.178Z,4.60
2022-10-23T12:42:26.207Z,6.43
2022-10-23T12:45:02.318Z,7.38
2022-10-23T12:47:30.429Z,7.68
2022-10-23T12:49:57.670Z,7.32
2022-10-23T12:52:25.236Z,5.45
2022-10-23T12:54:52.529Z,8.40
2022-10-23T12:57:28.865Z,7.45
2022-10-23T13:00:04.461Z,5.78
2022-10-23T13:02:32.630Z,6.28
2022-10-23T13:05:06.709Z,6.13
2022-10-23T13:07:42.728Z,7.03
2022-10-23T13:10:15.575Z,6.47
2022-10-23T13:13:02.851Z,5.20
2022-10-23T13:15:40.074Z,4.18
2022-10-23T13:18:08.629Z,6.00
2022-10-23T13:20:42.502Z,4.97
2022-10-23T13:23:24.347Z,6.85
2022-10-23T13:25:55.605Z,6.40
2022-10-23T13:28:33.124Z,5.05
2022-10-23T13:31:03.762Z,4.00
2022-10-23T13:33:34.840Z,4.65
2022-10-23T13:36:05.962Z,9.07
2022-10-23T13:38:38.203Z,4.80
2022-10-23T13:41:13.542Z,3.95
2022-10-23T13:43:41.671Z,6.17
2022-10-23T13:46:19.780Z,5.47
2022-10-23T13:48:47.811Z,5.45
2022-10-23T13:51:23.760Z,6.93
2022-10-23T13:53:53.374Z,4.93
2022-10-23T13:56:22.513Z,7.13
2022-10-23T13:58:50.253Z,6.20
2022-10-23T14:01:36.826Z,6.78
2022-10-23T14:04:04.981Z,7.17
2022-10-23T14:06:33.052Z,6.90
2022-10-23T14:09:00.222Z,5.80
2022-10-23T14:11:27.435Z,7.55
2022-10-23T14:13:54.559Z,5.72
2022-10-23T14:16:22.086Z,5.55
2022-10-23T14:18:49.752Z,6.68
2022-10-23T14:21:22.274Z,6.75
2022-10-23T14:23:51.976Z,7.53
2022-10-23T14:26:25.166Z,4.82
2022-10-23T14:28:54.127Z,8.15
2022-10-23T14:31:21.949Z,5.68
2022-10-23T14:33:54.704Z,6.10
2022-10-23T14:36:22.298Z,4.50
2022-10-23T14:38:54.816Z,4.50
2022-10-23T14:41:23.159Z,7.28
2022-10-23T14:43:50.334Z,4.85
2022-10-23T14:46:22.662Z,6.97
2022-10-23T14:48:52.790Z,5.50
2022-10-23T14:51:27.395Z,7.50
2022-10-23T14:54:06.070Z,5.18
2022-10-23T14:56:36.382Z,4.70
2022-10-23T14:59:06.401Z,9.15
2022-10-23T15:01:37.844Z,7.68
2022-10-23T15:04:07.030Z,3.67
2022-10-23T15:06:36.056Z,6.07
2022-10-23T15:09:04.556Z,6.50
2022-10-23T15:11:31.821Z,4.32
2022-10-23T15:14:00.242Z,7.38
2022-10-23T15:16:27.899Z,5.13
2022-10-23T15:18:55.006Z,7.77
2022-10-23T15:21:22.503Z,6.13
2022-10-23T15:23:50.121Z,7.47
2022-10-23T15:26:23.786Z,11.18
2022-10-23T15:28:59.145Z,8.77
2022-10-23T15:31:29.006Z,5.93
2022-10-23T15:33:57.306Z,7.90
2022-10-23T15:36:24.811Z,6.47
2022-10-23T15:38:52.181Z,7.40
2022-10-23T15:41:30.602Z,5.45
2022-10-23T15:44:02.163Z,5.30
2022-10-23T15:46:29.517Z,5.22
2022-10-23T15:48:56.670Z,4.60
2022-10-23T15:51:23.969Z,4.97
2022-10-23T15:53:51.169Z,7.78
2022-10-23T15:56:18.374Z,6.60
2022-10-23T15:58:45.817Z,8.10
2022-10-23T16:01:13.102Z,7.38
2022-10-23T16:03:40.488Z,8.38
2022-10-23T16:06:10.570Z,6.18
2022-10-23T16:08:38.647Z,6.80
2022-10-23T16:11:20.223Z,8.67
2022-10-23T16:13:47.617Z,5.45
2022-10-23T16:16:14.869Z,5.15
2022-10-23T16:18:43.592Z,9.07
2022-10-23T16:21:25.851Z,6.30
2022-10-23T16:23:55.263Z,6.05
2022-10-23T16:26:23.039Z,3.85
2022-10-23T16:28:58.351Z,6.07
2022-10-23T16:31:26.582Z,6.95
2022-10-23T16:33:54.383Z,4.95
2022-10-23T16:36:22.436Z,6.18
2022-10-23T16:39:15.716Z,5.57
2022-10-23T16:42:01.659Z,6.55
2022-10-23T16:44:41.924Z,8.63
2022-10-23T16:47:09.230Z,7.28
2022-10-23T16:49:36.377Z,7.07
2022-10-23T16:52:03.577Z,5.10
2022-10-23T16:54:30.757Z,12.95
2022-10-23T16:56:58.573Z,8.95
2022-10-23T16:59:25.799Z,8.13
2022-10-23T17:01:53.391Z,6.10
2022-10-23T17:04:20.664Z,7.82
2022-10-23T17:06:47.816Z,6.22
2022-10-23T17:09:15.228Z,6.30
2022-10-23T17:11:46.990Z,5.07
2022-10-23T17:14:17.417Z,6.90
2022-10-23T17:16:46.306Z,8.23
2022-10-23T17:19:39.714Z,9.52
2022-10-23T17:22:02.347Z,8.77
2022-10-23T17:24:29.492Z,6.72
2022-10-23T17:26:56.858Z,6.25
2022-10-23T17:29:23.961Z,5.43
2022-10-23T17:31:51.703Z,7.03
2022-10-23T17:34:21.419Z,8.10
2022-10-23T17:36:51.049Z,5.20
2022-10-23T17:39:22.392Z,7.30
2022-10-23T17:41:49.640Z,6.43
2022-10-23T17:44:16.966Z,5.63
2022-10-23T17:46:44.285Z,6.50
2022-10-23T17:49:12.491Z,6.13
2022-10-23T17:51:40.606Z,5.88
2022-10-23T17:54:10.712Z,6.55
2022-10-23T17:56:38.736Z,9.88
2022-10-23T17:59:09.559Z,8.73
2022-10-23T18:01:36.918Z,8.70
2022-10-23T18:04:06.442Z,8.07
2022-10-23T18:06:36.910Z,4.30
2022-10-23T18:09:05.287Z,5.90
2022-10-23T18:11:35.338Z,6.63
2022-10-23T18:14:03.226Z,4.93
2022-10-23T18:16:30.490Z,6.53
2022-10-23T18:19:00.581Z,6.90
2022-10-23T18:21:28.600Z,6.97
2022-10-23T18:23:58.144Z,6.15
2022-10-23T18:26:27.795Z,8.18
2022-10-23T18:28:58.252Z,6.10
2022-10-23T18:31:27.643Z,6.03
2022-10-23T18:33:59.580Z,6.38
2022-10-23T18:36:29.503Z,7.15
2022-10-23T18:38:56.797Z,5.35
2022-10-23T18:41:24.286Z,8.23
2022-10-23T18:43:51.962Z,4.22
2022-10-23T18:46:20.493Z,6.33
2022-10-23T18:48:48.377Z,6.45
2022-10-23T18:51:21.531Z,6.10
2022-10-23T18:53:49.442Z,7.78
2022-10-23T18:56:22.827Z,6.72
2022-10-23T18:58:50.767Z,8.68
2022-10-23T19:01:18.783Z,7.40
2022-10-23T19:03:46.681Z,7.10
2022-10-23T19:06:14.459Z,7.07
2022-10-23T19:08:43.399Z,6.63
2022-10-23T19:11:11.831Z,7.43
2022-10-23T19:13:39.592Z,7.25
2022-10-23T19:16:11.066Z,7.57
2022-10-23T19:18:40.517Z,7.72
2022-10-23T19:21:08.100Z,8.52
2022-10-23T19:23:37.123Z,8.40
2022-10-23T19:26:11.883Z,10.45
2022-10-23T19:28:45.789Z,13.68
2022-10-23T19:31:13.478Z,12.73
2022-10-23T19:33:41.299Z,8.57
2022-10-23T19:36:12.677Z,5.82
2022-10-23T19:38:42.261Z,5.82
2022-10-23T19:41:09.509Z,4.20
2022-10-23T19:43:37.793Z,6.20
2022-10-23T19:46:09.388Z,4.28
2022-10-23T19:48:44.131Z,4.37
2022-10-23T19:51:13.134Z,4.63
2022-10-23T19:53:41.819Z,6.82
2022-10-23T19:56:12.918Z,5.80
2022-10-23T19:58:40.697Z,7.65
2022-10-23T20:01:13.406Z,7.10
2022-10-23T20:03:42.148Z,5.97
2022-10-23T20:06:14.429Z,7.53
2022-10-23T20:08:42.083Z,8.45
2022-10-23T20:11:10.094Z,5.78
2022-10-23T20:13:37.322Z,6.90
2022-10-23T20:16:04.671Z,5.50
2022-10-23T20:18:31.828Z,6.33
2022-10-23T20:21:02.457Z,8.52
2022-10-23T20:23:29.659Z,6.35
2022-10-23T20:26:07.850Z,7.37
2022-10-23T20:28:35.306Z,5.22
2022-10-23T20:31:10.788Z,4.87
2022-10-23T20:33:39.322Z,4.05
2022-10-23T20:36:09.337Z,4.63
2022-10-23T20:38:36.773Z,6.05
2022-10-23T20:41:05.660Z,4.57
2022-10-23T20:43:33.862Z,4.68
2022-10-23T20:46:06.223Z,4.03
2022-10-23T20:48:43.862Z,4.15
2022-10-23T20:51:13.807Z,4.50
2022-10-23T20:53:41.882Z,5.47
2022-10-23T20:56:13.158Z,5.68
2022-10-23T20:58:40.486Z,3.97
2022-10-23T21:01:14.599Z,5.15
2022-10-23T21:03:42.211Z,5.32
2022-10-23T21:06:12.416Z,5.78
2022-10-23T21:08:40.474Z,6.95
2022-10-23T21:11:11.842Z,8.27
2022-10-23T21:13:39.155Z,6.60
2022-10-23T21:16:16.881Z,6.65
2022-10-23T21:18:46.663Z,8.68
2022-10-23T21:21:17.378Z,9.68
2022-10-23T21:23:46.051Z,7.88
2022-10-23T21:26:14.014Z,9.38
2022-10-23T21:28:50.740Z,7.05
2022-10-23T21:31:28.517Z,9.47
2022-10-23T21:33:55.804Z,9.20
2022-10-23T21:36:24.049Z,6.05
2022-10-23T21:38:54.019Z,7.38
2022-10-23T21:41:24.502Z,5.75
2022-10-23T21:43:56.432Z,7.07
2022-10-23T21:46:25.205Z,7.18
2022-10-23T21:48:52.845Z,6.20
2022-10-23T21:51:35.182Z,5.82
2022-10-23T21:54:03.423Z,4.35
2022-10-23T21:56:47.809Z,4.70
2022-10-23T21:59:17.934Z,6.05
2022-10-23T22:01:47.091Z,4.97
2022-10-23T22:04:17.044Z,6.70
2022-10-23T22:06:45.052Z,5.72
2022-10-23T22:09:16.171Z,4.22
2022-10-23T22:11:43.339Z,6.03
2022-10-23T22:14:10.929Z,6.20
2022-10-23T22:16:38.121Z,6.25
2022-10-23T22:19:05.260Z,5.45
2022-10-23T22:21:32.461Z,4.13
2022-10-23T22:24:01.090Z,3.30
2022-10-23T22:26:40.200Z,5.95
2022-10-23T22:29:10.785Z,4.07
2022-10-23T22:31:39.056Z,3.63
2022-10-23T22:34:25.047Z,4.68
2022-10-23T22:36:54.817Z,6.38
2022-10-23T22:39:22.766Z,7.22
2022-10-23T22:41:50.389Z,7.10
2022-10-23T22:44:17.895Z,4.72
2022-10-23T22:46:45.312Z,7.18
2022-10-23T22:49:12.586Z,4.38
2022-10-23T22:51:40.083Z,6.25
2022-10-23T22:54:07.533Z,4.53
2022-10-23T22:56:34.920Z,5.07
2022-10-23T22:59:02.659Z,4.05
2022-10-23T23:01:33.645Z,4.63
2022-10-23T23:04:08.882Z,3.80
2022-10-23T23:06:48.297Z,5.80
2022-10-23T23:09:18.056Z,5.30
2022-10-23T23:11:52.155Z,3.33
2022-10-23T23:14:24.077Z,6.47
2022-10-23T23:16:54.567Z,6.25
2022-10-23T23:19:22.869Z,6.20
2022-10-23T23:21:51.147Z,4.00
2022-10-23T23:24:18.388Z,5.30
2022-10-23T23:26:45.517Z,5.78
2022-10-23T23:29:13.022Z,4.23
2022-10-23T23:31:40.504Z,4.80
2022-10-23T23:34:07.653Z,6.65
2022-10-23T23:36:35.228Z,6.80
2022-10-23T23:41:37.777Z,5.03
2022-10-23T23:44:05.096Z,7.30
2022-10-23T23:46:32.403Z,5.70
2022-10-23T23:48:59.590Z,8.18
2022-10-23T23:51:26.719Z,5.78
2022-10-23T23:53:54.037Z,5.53
2022-10-23T23:56:21.403Z,5.78
2022-10-23T23:58:48.823Z,7.55
